Time;durP1;ratioP1;P1;durP2;ratioP2;P2;SDS_P1;SDS_P2;PMS_P1;PMS_P2;Temp;Humidity;BMP_temperature;BMP_pressure;BME280_temperature;BME280_humidity;BME280_pressure;Samples;Min_cycle;Max_cycle;Signal;HPM_P1;HPM_P2
2023/09/30 00:01:03;;;;;;;;;;;21.20;50.60;;;17.09;84.76;96350.97;5031116;28;19909;-45
2023/09/30 00:03:28;;;;;;;;;;;21.20;50.60;;;17.09;84.82;96360.94;5030438;28;19916;-47
2023/09/30 00:05:55;;;;;;;;;;;21.20;50.70;;;17.07;84.94;96358.50;5029453;28;20445;-46
2023/09/30 00:08:20;;;;;;;;;;;21.10;50.70;;;17.07;84.60;96357.72;5030764;28;20299;-49
2023/09/30 00:10:46;;;;;;;;;;;21.10;50.80;;;17.06;85.05;96364.19;5024946;28;20032;-47
2023/09/30 00:13:13;;;;;;;;;;;21.10;50.80;;;17.04;85.64;96361.78;5030198;28;19970;-46
2023/09/30 00:15:39;;;;;;;;;;;21.10;50.80;;;17.02;86.53;96365.88;5030453;28;19935;-51
2023/09/30 00:18:05;;;;;;;;;;;21.10;50.90;;;17.01;87.67;96366.94;5004360;28;19920;-47
2023/09/30 00:20:31;;;;;;;;;;;21.10;50.90;;;16.97;88.07;96374.78;5030037;28;19909;-46
2023/09/30 00:22:57;;;;;;;;;;;21.10;51.00;;;16.93;87.85;96368.38;5024435;28;19920;-48
2023/09/30 00:25:23;;;;;;;;;;;21.10;51.00;;;16.90;87.15;96366.25;5011182;28;20287;-47
2023/09/30 00:27:49;;;;;;;;;;;21.00;51.00;;;16.91;87.51;96364.38;5010616;28;19909;-45
2023/09/30 00:30:15;;;;;;;;;;;21.00;51.10;;;16.87;87.88;96373.00;5014628;28;19936;-45
2023/09/30 00:32:41;;;;;;;;;;;21.00;51.10;;;16.84;90.13;96368.19;5030429;28;20371;-46
2023/09/30 00:35:11;;;;;;;;;;;20.90;51.20;;;16.81;89.95;96370.66;5026667;28;19909;-49
2023/09/30 00:37:41;;;;;;;;;;;20.90;51.20;;;16.78;90.61;96369.34;5030333;28;19913;-46
2023/09/30 00:40:11;;;;;;;;;;;20.90;51.40;;;16.77;91.20;96372.31;5029752;28;19909;-48
2023/09/30 00:42:38;;;;;;;;;;;20.90;51.40;;;16.75;91.55;96371.75;5010616;28;20007;-47
2023/09/30 00:45:06;;;;;;;;;;;20.90;51.50;;;16.73;92.02;96366.66;5010432;28;19970;-47
2023/09/30 00:47:33;;;;;;;;;;;20.80;51.60;;;16.72;92.56;96369.66;5005313;28;20394;-45
2023/09/30 00:50:00;;;;;;;;;;;20.80;51.60;;;16.70;93.09;96366.44;5008442;28;19916;-48
2023/09/30 00:52:27;;;;;;;;;;;20.80;51.70;;;16.68;93.64;96361.34;5002050;28;19949;-48
2023/09/30 00:54:55;;;;;;;;;;;20.70;51.80;;;16.67;93.88;96359.72;5008963;28;19909;-49
2023/09/30 00:57:21;;;;;;;;;;;20.70;52.00;;;16.65;93.67;96362.72;5001072;28;19909;-48
2023/09/30 00:59:50;;;;;;;;;;;20.70;52.00;;;16.64;93.38;96357.63;5006451;28;19913;-53
2023/09/30 01:02:17;;;;;;;;;;;20.70;52.10;;;16.62;93.06;96351.72;4997507;28;20000;-51
2023/09/30 01:04:44;;;;;;;;;;;20.70;52.10;;;16.61;93.01;96345.53;4999641;28;19913;-49
2023/09/30 01:07:11;;;;;;;;;;;20.70;52.20;;;16.60;93.05;96337.75;4999238;28;19924;-48
2023/09/30 01:09:38;;;;;;;;;;;20.60;52.20;;;16.57;94.04;96332.94;4992418;28;19921;-47
2023/09/30 01:12:04;;;;;;;;;;;20.60;52.30;;;16.52;94.07;96325.72;5005888;28;19920;-52
2023/09/30 01:14:38;;;;;;;;;;;20.60;52.30;;;16.49;94.54;96328.19;5004399;28;19915;-48
2023/09/30 01:17:08;;;;;;;;;;;20.60;52.40;;;16.45;94.59;96341.38;5009310;28;19920;-48
2023/09/30 01:19:34;;;;;;;;;;;20.60;52.50;;;16.43;94.62;96332.81;5001466;28;19913;-46
2023/09/30 01:22:05;;;;;;;;;;;20.50;52.50;;;16.39;95.80;96323.72;5004058;28;19909;-49
2023/09/30 01:24:41;;;;;;;;;;;20.40;52.50;;;16.35;95.66;96325.34;5013099;28;19924;-47
2023/09/30 01:27:08;;;;;;;;;;;20.40;52.60;;;16.32;96.29;96317.84;5014421;28;19916;-48
2023/09/30 01:29:38;;;;;;;;;;;20.40;52.70;;;16.28;96.20;96328.38;5012195;28;19917;-48
2023/09/30 01:32:08;;;;;;;;;;;20.30;52.80;;;16.21;96.62;96327.91;4995852;28;19917;-47
2023/09/30 01:34:34;;;;;;;;;;;20.30;52.90;;;16.19;96.79;96330.06;5008405;28;19921;-47
2023/09/30 01:37:00;;;;;;;;;;;20.20;52.90;;;16.16;97.54;96325.25;5014634;28;19979;-47
2023/09/30 01:39:26;;;;;;;;;;;20.20;53.10;;;16.14;98.19;96330.13;5004967;28;19913;-45
2023/09/30 01:41:52;;;;;;;;;;;20.20;53.20;;;16.13;98.31;96328.50;5011014;28;19916;-44
2023/09/30 01:44:18;;;;;;;;;;;20.20;53.20;;;16.10;98.82;96323.69;5013173;28;19917;-48
2023/09/30 01:46:43;;;;;;;;;;;20.20;53.30;;;16.07;99.09;96321.56;5008055;28;19917;-49
2023/09/30 01:49:09;;;;;;;;;;;20.10;53.30;;;16.07;98.37;96316.97;5013205;28;19939;-49
2023/09/30 01:51:35;;;;;;;;;;;20.20;53.50;;;16.06;98.15;96325.34;5013673;28;19909;-46
2023/09/30 01:54:01;;;;;;;;;;;20.10;53.50;;;16.05;98.42;96315.69;5005975;28;19959;-45
2023/09/30 01:56:27;;;;;;;;;;;20.10;53.60;;;16.05;98.28;96323.75;5013486;28;20426;-47
2023/09/30 01:58:53;;;;;;;;;;;20.10;53.60;;;16.04;98.55;96319.44;5011283;28;20434;-46
2023/09/30 02:01:18;;;;;;;;;;;20.10;53.70;;;16.04;98.52;96327.50;5014104;28;19931;-49
2023/09/30 02:03:44;;;;;;;;;;;20.10;53.70;;;16.03;98.77;96326.69;5013405;28;19921;-48
2023/09/30 02:06:10;;;;;;;;;;;20.10;53.70;;;16.05;98.69;96329.13;5015218;28;19921;-45
2023/09/30 02:08:36;;;;;;;;;;;20.10;53.80;;;16.05;98.18;96334.50;5013237;28;19952;-46
2023/09/30 02:11:05;;;;;;;;;;;20.10;53.80;;;16.05;98.12;96324.53;5014837;28;19908;-45
2023/09/30 02:13:35;;;;;;;;;;;20.10;53.90;;;16.05;98.68;96319.16;5012833;28;19980;-48
2023/09/30 02:16:01;;;;;;;;;;;20.10;53.90;;;16.06;98.63;96318.06;5011198;28;19955;-49
2023/09/30 02:18:27;;;;;;;;;;;20.10;53.90;;;16.04;99.39;96312.16;4998576;28;20667;-49
2023/09/30 02:20:53;;;;;;;;;;;20.10;54.00;;;16.05;98.85;96316.47;5009378;28;19915;-49
2023/09/30 02:23:19;;;;;;;;;;;20.10;54.00;;;16.06;98.30;96325.34;5011825;28;19917;-49
2023/09/30 02:25:45;;;;;;;;;;;20.10;54.10;;;16.04;98.59;96309.47;5012864;28;19917;-49
2023/09/30 02:28:10;;;;;;;;;;;20.10;54.10;;;16.03;98.41;96317.84;5012237;28;19959;-47
2023/09/30 02:30:36;;;;;;;;;;;20.10;54.10;;;16.01;98.17;96312.72;5001390;28;20007;-47
2023/09/30 02:33:04;;;;;;;;;;;20.10;54.10;;;16.01;98.52;96307.34;5013122;28;19913;-47
2023/09/30 02:35:30;;;;;;;;;;;20.10;54.20;;;16.01;98.58;96314.63;5006344;28;20448;-46
2023/09/30 02:37:56;;;;;;;;;;;20.10;54.20;;;16.00;99.10;96316.50;5010984;28;19988;-45
2023/09/30 02:40:24;;;;;;;;;;;20.10;54.20;;;16.00;99.00;96329.13;5011844;28;19963;-50
2023/09/30 02:42:51;;;;;;;;;;;20.10;54.30;;;15.98;99.25;96326.72;5011903;28;20436;-50
2023/09/30 02:45:17;;;;;;;;;;;20.10;54.30;;;15.96;98.87;96327.00;5032498;28;19962;-46
2023/09/30 02:47:43;;;;;;;;;;;20.10;54.40;;;15.94;99.14;96331.84;5025890;28;19908;-51
2023/09/30 02:50:16;;;;;;;;;;;20.00;54.40;;;15.91;99.16;96321.66;5029715;28;19909;-46
2023/09/30 02:52:42;;;;;;;;;;;20.00;54.40;;;15.92;98.87;96325.19;5023634;28;19920;-45
2023/09/30 02:55:10;;;;;;;;;;;20.00;54.40;;;15.92;98.70;96328.66;5024209;28;19908;-50
2023/09/30 02:57:36;;;;;;;;;;;20.10;54.50;;;15.90;98.37;96333.50;5028453;28;19957;-50
2023/09/30 03:00:23;;;;;;;;;;;20.00;54.50;;;15.85;99.20;96325.47;5029729;28;19917;-48
2023/09/30 03:02:53;;;;;;;;;;;20.10;54.60;;;15.88;98.98;96319.53;5023032;28;19962;-50
2023/09/30 03:05:20;;;;;;;;;;;20.10;54.60;;;15.88;98.74;96316.84;5030322;28;19909;-52
2023/09/30 03:07:47;;;;;;;;;;;20.00;54.50;;;15.87;99.00;96317.94;5031776;28;19908;-49
2023/09/30 03:10:23;;;;;;;;;;;20.10;54.60;;;15.88;98.91;96327.59;5027333;28;19913;-46
2023/09/30 03:13:01;;;;;;;;;;;20.00;54.50;;;15.87;99.17;96328.69;5030948;28;20487;-47
2023/09/30 03:15:31;;;;;;;;;;;20.00;54.60;;;15.78;100.00;96321.50;5031307;28;19962;-45
2023/09/30 03:17:59;;;;;;;;;;;20.10;54.70;;;15.78;100.00;96316.94;5014760;28;20372;-46
2023/09/30 03:20:26;;;;;;;;;;;20.00;54.60;;;15.81;100.00;96323.63;4992546;28;19908;-49
2023/09/30 03:22:52;;;;;;;;;;;20.00;54.70;;;15.79;99.82;96318.53;5026675;28;19958;-50
2023/09/30 03:25:20;;;;;;;;;;;20.00;54.70;;;15.77;99.96;96327.97;5031526;28;19916;-48
2023/09/30 03:27:47;;;;;;;;;;;19.90;54.70;;;15.73;99.69;96333.06;5019519;28;20000;-47
2023/09/30 03:30:19;;;;;;;;;;;19.90;54.80;;;15.70;100.00;96337.16;5027744;28;19915;-45
2023/09/30 03:32:45;;;;;;;;;;;19.90;54.90;;;15.73;100.00;96338.44;5030836;28;20015;-48
2023/09/30 03:35:16;;;;;;;;;;;19.90;55.00;;;15.72;100.00;96337.66;5028502;28;20288;-47
2023/09/30 03:37:46;;;;;;;;;;;19.90;55.00;;;15.75;100.00;96338.97;5031975;28;19931;-49
2023/09/30 03:40:19;;;;;;;;;;;19.90;55.10;;;15.74;99.96;96334.69;5026098;28;20080;-47
2023/09/30 03:42:50;;;;;;;;;;;19.90;55.10;;;15.66;100.00;96322.63;5026897;28;19925;-45
2023/09/30 03:45:16;;;;;;;;;;;19.90;55.10;;;15.58;100.00;96312.47;5029378;28;19913;-47
2023/09/30 03:47:43;;;;;;;;;;;19.90;55.10;;;15.56;100.00;96314.63;5025539;28;19962;-50
2023/09/30 03:50:15;;;;;;;;;;;19.80;55.00;;;15.63;100.00;96335.81;5011766;28;19915;-46
2023/09/30 03:52:46;;;;;;;;;;;19.80;55.10;;;15.62;100.00;96342.25;5010022;28;19913;-47
2023/09/30 03:55:12;;;;;;;;;;;19.80;55.20;;;15.60;100.00;96345.22;5023082;28;19909;-45
2023/09/30 03:57:38;;;;;;;;;;;19.80;55.20;;;15.60;100.00;96339.84;5031004;28;20335;-49
2023/09/30 04:00:11;;;;;;;;;;;19.70;55.20;;;15.61;100.00;96344.16;5027844;28;19920;-49
2023/09/30 04:02:36;;;;;;;;;;;19.80;55.30;;;15.61;100.00;96341.47;5027728;28;19912;-47
2023/09/30 04:05:06;;;;;;;;;;;19.80;55.30;;;15.61;100.00;96346.03;5028375;28;19908;-50
2023/09/30 04:07:32;;;;;;;;;;;19.80;55.40;;;15.59;100.00;96337.44;5030601;28;19912;-47
2023/09/30 04:10:01;;;;;;;;;;;19.80;55.40;;;15.58;100.00;96328.59;5030948;28;19915;-46
2023/09/30 04:12:26;;;;;;;;;;;19.80;55.40;;;15.58;100.00;96317.84;5025837;28;19916;-44
2023/09/30 04:14:52;;;;;;;;;;;19.80;55.40;;;15.56;100.00;96319.22;5030386;28;19909;-47
2023/09/30 04:17:18;;;;;;;;;;;19.70;55.40;;;15.55;100.00;96320.31;5026246;28;19999;-46
2023/09/30 04:19:45;;;;;;;;;;;19.70;55.50;;;15.55;100.00;96321.09;5030611;28;20748;-46
2023/09/30 04:22:12;;;;;;;;;;;19.70;55.50;;;15.50;100.00;96318.44;5030176;28;19916;-46
2023/09/30 04:24:39;;;;;;;;;;;19.70;55.60;;;15.41;100.00;96315.53;5027905;28;19919;-46
2023/09/30 04:27:07;;;;;;;;;;;19.60;55.60;;;15.46;100.00;96317.38;5030866;28;19916;-44
2023/09/30 04:29:34;;;;;;;;;;;19.60;55.60;;;15.46;100.00;96312.03;5017437;28;19909;-49
2023/09/30 04:32:00;;;;;;;;;;;19.60;55.70;;;15.44;100.00;96304.22;5029060;28;20046;-50
2023/09/30 04:34:27;;;;;;;;;;;19.60;55.80;;;15.45;100.00;96297.00;5029796;28;20003;-51
2023/09/30 04:36:53;;;;;;;;;;;19.60;55.80;;;15.43;100.00;96293.78;5028019;28;20380;-49
2023/09/30 04:39:19;;;;;;;;;;;19.60;55.90;;;15.32;100.00;96295.72;5030278;28;19915;-45
2023/09/30 04:41:46;;;;;;;;;;;19.50;55.90;;;15.24;100.00;96297.09;5026986;28;19917;-45
2023/09/30 04:44:12;;;;;;;;;;;19.50;56.00;;;15.30;100.00;96302.44;5029446;28;20360;-49
2023/09/30 04:46:45;;;;;;;;;;;19.50;56.00;;;15.30;100.00;96313.19;5020939;28;19999;-47
2023/09/30 04:49:14;;;;;;;;;;;19.40;56.00;;;15.30;100.00;96323.94;5014701;28;19909;-44
2023/09/30 04:51:40;;;;;;;;;;;19.40;56.10;;;15.28;100.00;96326.88;5029822;28;19999;-50
2023/09/30 04:54:08;;;;;;;;;;;19.40;56.20;;;15.27;100.00;96327.97;5026796;28;20012;-47
2023/09/30 04:56:38;;;;;;;;;;;19.40;56.20;;;15.28;100.00;96321.50;5028596;28;20385;-49
2023/09/30 04:59:04;;;;;;;;;;;19.40;56.20;;;15.25;100.00;96314.00;5029226;28;19917;-45
2023/09/30 05:01:30;;;;;;;;;;;19.50;56.30;;;15.23;100.00;96302.72;5026621;28;19913;-45
2023/09/30 05:03:57;;;;;;;;;;;19.40;56.20;;;15.20;100.00;96306.78;5006254;28;19924;-47
2023/09/30 05:06:23;;;;;;;;;;;19.40;56.30;;;15.19;100.00;96333.88;5015414;28;19954;-48
2023/09/30 05:08:48;;;;;;;;;;;19.30;56.30;;;15.17;100.00;96333.38;5016027;28;19909;-47
2023/09/30 05:11:15;;;;;;;;;;;19.30;56.40;;;15.15;100.00;96355.09;5018042;28;19919;-46
2023/09/30 05:13:41;;;;;;;;;;;19.30;56.40;;;15.13;100.00;96356.44;5014262;28;20004;-51
2023/09/30 05:16:10;;;;;;;;;;;19.30;56.50;;;15.09;100.00;96344.69;5023563;28;20358;-61
2023/09/30 05:18:36;;;;;;;;;;;19.30;56.50;;;14.98;100.00;96335.88;5030436;28;20413;-49
2023/09/30 05:21:02;;;;;;;;;;;19.30;56.50;;;15.01;100.00;96333.44;5033671;28;19923;-43
2023/09/30 05:23:28;;;;;;;;;;;19.30;56.60;;;15.01;100.00;96333.44;5030287;28;19913;-45
2023/09/30 05:25:54;;;;;;;;;;;19.30;56.60;;;15.06;100.00;96342.53;5020682;28;20007;-46
2023/09/30 05:28:23;;;;;;;;;;;19.20;56.70;;;15.07;100.00;96344.94;5034058;28;20444;-43
2023/09/30 05:30:50;;;;;;;;;;;19.20;56.70;;;15.07;100.00;96339.56;5024339;28;19909;-43
2023/09/30 05:33:16;;;;;;;;;;;19.20;56.70;;;15.09;100.00;96340.09;5033254;28;19978;-45
2023/09/30 05:35:42;;;;;;;;;;;19.30;56.90;;;15.09;100.00;96347.34;5030581;28;19951;-47
2023/09/30 05:38:09;;;;;;;;;;;19.30;56.80;;;15.11;100.00;96346.00;5033770;28;19962;-47
2023/09/30 05:40:36;;;;;;;;;;;19.30;56.90;;;15.12;100.00;96344.94;5031887;28;19908;-42
2023/09/30 05:43:02;;;;;;;;;;;19.30;56.80;;;15.09;100.00;96348.16;5010179;28;20478;-44
2023/09/30 05:45:35;;;;;;;;;;;19.40;56.90;;;15.12;100.00;96357.53;5002946;28;19952;-43
2023/09/30 05:48:05;;;;;;;;;;;19.40;56.90;;;15.14;100.00;96350.84;5008917;28;20383;-44
2023/09/30 05:50:36;;;;;;;;;;;19.40;56.90;;;15.22;100.00;96357.50;5007600;28;20380;-43
2023/09/30 05:53:03;;;;;;;;;;;19.40;57.00;;;15.24;100.00;96358.81;5002538;28;19913;-48
2023/09/30 05:55:29;;;;;;;;;;;19.40;56.90;;;15.30;100.00;96374.94;5007011;28;19915;-45
2023/09/30 05:57:55;;;;;;;;;;;19.50;57.00;;;15.33;100.00;96366.31;5000322;28;20000;-48
2023/09/30 06:00:29;;;;;;;;;;;19.50;56.90;;;15.33;100.00;96369.81;5005330;28;20475;-44
2023/09/30 06:02:55;;;;;;;;;;;19.50;56.90;;;15.36;100.00;96376.50;5000476;28;19968;-47
2023/09/30 06:05:26;;;;;;;;;;;19.60;56.90;;;15.38;100.00;96364.41;5004167;28;19909;-44
2023/09/30 06:07:54;;;;;;;;;;;19.60;56.90;;;15.41;100.00;96366.53;5003586;28;19913;-44
2023/09/30 06:10:20;;;;;;;;;;;19.60;56.80;;;15.45;100.00;96372.97;4997380;28;19909;-41
2023/09/30 06:12:54;;;;;;;;;;;19.60;56.80;;;15.49;100.00;96365.16;4999499;28;19913;-41
2023/09/30 06:15:25;;;;;;;;;;;19.70;56.80;;;15.50;100.00;96364.88;5005382;28;19917;-42
2023/09/30 06:17:55;;;;;;;;;;;19.80;56.80;;;15.52;100.00;96375.34;5006455;28;19910;-44
2023/09/30 06:20:22;;;;;;;;;;;19.80;56.80;;;15.56;99.23;96387.13;5000479;28;19916;-44
2023/09/30 06:22:49;;;;;;;;;;;19.80;56.70;;;15.59;99.05;96380.41;4999048;28;19917;-42
2023/09/30 06:25:16;;;;;;;;;;;19.90;56.70;;;15.64;98.49;96375.81;5005678;28;19921;-43
2023/09/30 06:27:47;;;;;;;;;;;20.00;56.60;;;15.66;98.16;96387.06;5005493;28;19920;-42
2023/09/30 06:30:18;;;;;;;;;;;20.00;56.60;;;15.68;96.95;96384.94;5009721;28;19909;-45
2023/09/30 06:32:44;;;;;;;;;;;20.10;56.60;;;15.73;96.94;96378.72;5004939;28;20378;-43
2023/09/30 06:35:11;;;;;;;;;;;20.10;56.60;;;15.79;97.50;96385.69;4996696;28;19909;-44
2023/09/30 06:37:39;;;;;;;;;;;20.10;56.40;;;15.83;97.51;96380.59;4997210;28;19909;-47
2023/09/30 06:40:11;;;;;;;;;;;20.20;56.30;;;15.89;96.63;96396.38;5006625;28;19924;-44
2023/09/30 06:42:39;;;;;;;;;;;20.30;56.20;;;16.01;95.94;96400.59;4998658;28;19941;-42
2023/09/30 06:45:07;;;;;;;;;;;20.50;56.20;;;16.07;94.68;96391.41;5019698;28;19923;-47
2023/09/30 06:47:34;;;;;;;;;;;20.60;56.10;;;16.19;93.93;96402.63;5030360;28;19920;-47
2023/09/30 06:50:08;;;;;;;;;;;20.70;56.00;;;16.35;93.71;96406.00;5027698;28;19916;-45
2023/09/30 06:52:36;;;;;;;;;;;20.90;56.00;;;16.49;92.48;96409.66;5025018;28;19915;-43
2023/09/30 06:55:05;;;;;;;;;;;21.00;55.80;;;16.63;92.01;96409.78;5023567;28;19917;-43
2023/09/30 06:57:36;;;;;;;;;;;21.20;55.70;;;16.75;90.20;96409.44;5027295;28;19961;-45
2023/09/30 07:00:09;;;;;;;;;;;21.40;55.50;;;16.95;89.92;96416.53;5023512;28;20410;-43
2023/09/30 07:02:36;;;;;;;;;;;21.60;55.30;;;17.05;88.72;96402.97;5007179;28;20004;-43
2023/09/30 07:05:13;;;;;;;;;;;21.80;55.10;;;17.13;87.33;96394.25;5025422;28;19978;-45
2023/09/30 07:07:42;;;;;;;;;;;21.90;54.80;;;17.16;86.45;96406.34;5025103;28;19916;-43
2023/09/30 07:10:09;;;;;;;;;;;22.00;54.70;;;17.24;86.11;96421.88;5023692;28;19952;-44
2023/09/30 07:12:36;;;;;;;;;;;22.10;54.50;;;17.28;84.94;96426.41;5021068;28;19912;-44
2023/09/30 07:15:06;;;;;;;;;;;22.10;54.40;;;17.39;85.40;96424.38;5031917;28;20259;-43
2023/09/30 07:17:33;;;;;;;;;;;22.20;54.30;;;17.53;84.88;96427.19;5032694;28;19913;-44
2023/09/30 07:19:59;;;;;;;;;;;22.30;54.20;;;17.69;84.33;96419.72;5030004;28;19915;-42
2023/09/30 07:22:25;;;;;;;;;;;22.40;54.10;;;17.87;83.51;96426.25;5030022;28;19912;-52
2023/09/30 07:24:51;;;;;;;;;;;22.60;54.00;;;18.08;83.47;96427.53;5029948;28;19916;-43
2023/09/30 07:27:17;;;;;;;;;;;22.80;53.80;;;18.26;82.32;96425.94;5018783;28;19917;-45
2023/09/30 07:29:44;;;;;;;;;;;23.00;53.70;;;18.42;80.67;96426.50;5023656;28;19955;-48
2023/09/30 07:32:10;;;;;;;;;;;23.20;53.60;;;18.50;79.07;96428.56;5017953;28;19908;-45
2023/09/30 07:34:35;;;;;;;;;;;23.40;53.30;;;18.64;78.49;96444.78;5030205;28;19931;-42
2023/09/30 07:37:01;;;;;;;;;;;23.60;53.10;;;18.73;76.99;96432.25;5031072;28;19913;-44
2023/09/30 07:39:27;;;;;;;;;;;23.70;52.90;;;18.75;76.81;96438.16;5022123;28;20334;-43
2023/09/30 07:41:52;;;;;;;;;;;23.80;52.70;;;18.82;75.62;96449.34;5026178;28;20011;-45
2023/09/30 07:44:18;;;;;;;;;;;23.90;52.50;;;18.81;74.69;96446.97;5030760;28;19923;-42
2023/09/30 07:46:44;;;;;;;;;;;23.90;52.30;;;18.82;74.26;96440.47;5022634;28;20128;-43
2023/09/30 07:49:11;;;;;;;;;;;24.00;52.20;;;18.87;74.17;96448.47;5015168;28;19909;-43
2023/09/30 07:51:39;;;;;;;;;;;24.00;52.00;;;18.98;74.20;96449.09;5031139;28;19915;-43
2023/09/30 07:54:05;;;;;;;;;;;24.00;52.40;;;19.03;74.29;96444.41;5029584;28;20000;-44
2023/09/30 07:56:31;;;;;;;;;;;24.10;51.70;;;19.11;74.02;96446.41;5029792;28;20327;-44
2023/09/30 07:58:57;;;;;;;;;;;24.20;52.20;;;19.11;73.59;96440.22;5029456;28;19916;-43
2023/09/30 08:01:23;;;;;;;;;;;24.40;51.40;;;19.08;73.76;96433.50;5013213;28;19917;-44
2023/09/30 08:03:49;;;;;;;;;;;24.50;51.20;;;19.20;73.08;96435.72;5030672;28;19913;-45
2023/09/30 08:06:15;;;;;;;;;;;24.80;50.90;;;19.58;71.41;96436.31;5028460;28;19999;-44
2023/09/30 08:08:40;;;;;;;;;;;25.10;50.70;;;19.97;70.85;96436.94;5030984;28;19908;-44
2023/09/30 08:11:07;;;;;;;;;;;25.40;50.60;;;20.20;65.27;96429.63;5027851;28;20415;-46
2023/09/30 08:13:33;;;;;;;;;;;25.60;50.30;;;20.40;66.82;96422.94;5030197;28;19912;-47
2023/09/30 08:15:59;;;;;;;;;;;25.90;49.90;;;20.94;64.93;96435.47;5028389;28;19966;-44
2023/09/30 08:18:25;;;;;;;;;;;26.40;49.90;;;21.37;62.85;96440.31;5023767;28;19909;-46
2023/09/30 08:20:51;;;;;;;;;;;26.90;49.60;;;21.60;60.98;96440.22;5023396;28;19909;-45
2023/09/30 08:23:17;;;;;;;;;;;27.40;49.10;;;22.04;61.96;96441.13;5017326;28;19912;-44
2023/09/30 08:25:43;;;;;;;;;;;27.80;48.90;;;22.21;56.62;96446.59;4997888;28;19908;-45
2023/09/30 08:28:09;;;;;;;;;;;28.00;48.50;;;21.77;58.34;96442.97;5027127;28;19908;-49
2023/09/30 08:30:36;;;;;;;;;;;28.10;48.10;;;21.64;59.69;96457.47;5025924;28;20019;-44
2023/09/30 08:33:03;;;;;;;;;;;28.10;47.80;;;21.60;60.59;96475.47;5025747;28;20011;-48
2023/09/30 08:35:37;;;;;;;;;;;27.90;47.60;;;21.42;60.19;96477.31;5015648;28;20004;-47
2023/09/30 08:38:03;;;;;;;;;;;27.80;47.50;;;21.33;59.59;96489.97;5022112;28;19917;-44
2023/09/30 08:40:30;;;;;;;;;;;27.50;47.40;;;20.74;60.86;96471.94;5011368;28;19913;-49
2023/09/30 08:42:55;;;;;;;;;;;27.30;47.80;;;20.52;61.86;96453.00;5028151;28;20323;-46
2023/09/30 08:45:21;;;;;;;;;;;27.10;47.10;;;20.40;62.87;96434.59;5030869;28;19999;-45
2023/09/30 08:47:47;;;;;;;;;;;26.80;47.10;;;20.49;63.57;96416.50;5020613;28;19940;-43
2023/09/30 08:50:16;;;;;;;;;;;26.60;47.20;;;20.75;63.04;96414.00;5009491;28;20264;-43
2023/09/30 08:52:44;;;;;;;;;;;26.70;47.10;;;21.05;62.18;96417.03;5009098;28;19915;-44
2023/09/30 08:55:11;;;;;;;;;;;27.00;47.00;;;21.41;61.51;96406.06;5013557;28;19913;-46
2023/09/30 08:57:40;;;;;;;;;;;27.20;46.80;;;21.82;60.58;96413.00;5024525;28;19909;-47
2023/09/30 09:00:12;;;;;;;;;;;27.60;46.80;;;22.17;58.58;96424.72;5026567;28;19913;-49
2023/09/30 09:02:42;;;;;;;;;;;28.00;46.50;;;22.42;57.55;96424.25;5029602;28;19913;-49
2023/09/30 09:05:09;;;;;;;;;;;28.40;46.10;;;21.78;57.72;96416.66;5002702;28;19969;-49
2023/09/30 09:07:35;;;;;;;;;;;28.50;45.80;;;21.65;59.49;96404.81;5029497;28;19983;-47
2023/09/30 09:10:08;;;;;;;;;;;28.50;45.50;;;21.39;59.84;96407.47;5029494;28;20290;-46
2023/09/30 09:12:38;;;;;;;;;;;28.60;45.30;;;21.54;61.34;96407.03;5014300;28;19930;-46
2023/09/30 09:15:07;;;;;;;;;;;28.60;45.10;;;22.08;58.22;96414.94;5029641;28;19912;-46
2023/09/30 09:17:44;;;;;;;;;;;28.70;45.00;;;22.51;56.88;96411.47;5020097;28;19909;-48
2023/09/30 09:20:24;;;;;;;;;;;28.90;44.80;;;22.87;56.54;96417.31;5009556;28;19909;-44
2023/09/30 09:22:55;;;;;;;;;;;29.20;44.80;;;21.94;58.17;96425.97;5015247;28;19964;-44
2023/09/30 09:25:22;;;;;;;;;;;29.40;44.30;;;22.48;55.81;96431.91;5030110;28;19908;-43
2023/09/30 09:27:51;;;;;;;;;;;29.60;44.10;;;22.92;54.38;96420.97;5029653;28;20295;-47
2023/09/30 09:30:25;;;;;;;;;;;29.90;43.80;;;22.99;55.15;96430.25;5025679;28;20323;-44
2023/09/30 09:32:55;;;;;;;;;;;30.10;43.50;;;23.35;52.98;96431.75;5010149;28;19909;-46
2023/09/30 09:35:22;;;;;;;;;;;30.30;43.20;;;23.64;53.13;96428.25;5027704;28;20379;-45
2023/09/30 09:38:08;;;;;;;;;;;30.50;42.90;;;23.89;52.80;96431.97;5011789;28;19944;-44
2023/09/30 09:40:40;;;;;;;;;;;30.70;42.50;;;24.00;51.55;96427.75;5009930;28;20073;-46
2023/09/30 09:43:06;;;;;;;;;;;30.90;42.20;;;24.17;51.95;96437.72;4996438;28;20024;-45
2023/09/30 09:45:37;;;;;;;;;;;31.10;41.90;;;24.27;51.54;96435.72;5013332;28;19931;-46
2023/09/30 09:48:04;;;;;;;;;;;31.30;41.70;;;24.63;49.97;96433.22;5012345;28;20272;-46
2023/09/30 09:50:35;;;;;;;;;;;31.50;41.50;;;24.60;48.93;96433.06;5013910;28;19909;-45
2023/09/30 09:53:02;;;;;;;;;;;31.60;41.20;;;24.71;48.98;96439.69;5012643;28;19909;-43
2023/09/30 09:55:28;;;;;;;;;;;31.80;41.00;;;24.82;47.46;96445.50;5013872;28;19909;-46
2023/09/30 09:57:54;;;;;;;;;;;31.90;41.30;;;25.05;46.92;96438.56;5013234;28;19920;-46
2023/09/30 10:00:24;;;;;;;;;;;32.20;40.40;;;25.44;46.57;96439.09;5012529;28;19909;-42
2023/09/30 10:02:51;;;;;;;;;;;32.60;40.00;;;25.79;46.29;96439.47;5013561;28;20011;-44
2023/09/30 10:05:19;;;;;;;;;;;32.90;39.80;;;25.86;44.40;96443.56;5012081;28;19909;-43
2023/09/30 10:08:10;;;;;;;;;;;32.90;39.70;;;25.76;44.57;96429.22;5013257;28;20336;-44
2023/09/30 10:10:37;;;;;;;;;;;32.80;39.70;;;25.69;45.01;96437.16;5012638;28;19913;-43
2023/09/30 10:13:03;;;;;;;;;;;32.60;39.40;;;25.80;45.51;96440.25;5013429;28;19912;-43
2023/09/30 10:15:31;;;;;;;;;;;32.60;39.30;;;25.58;44.79;96431.38;5013711;28;19913;-41
2023/09/30 10:18:00;;;;;;;;;;;32.50;39.30;;;25.38;45.11;96427.63;5011668;28;19970;-44
2023/09/30 10:20:35;;;;;;;;;;;32.20;39.20;;;24.99;46.87;96426.28;5013664;28;19963;-44
2023/09/30 10:23:24;;;;;;;;;;;31.90;39.20;;;24.77;47.26;96423.94;5006829;28;19993;-42
2023/09/30 10:25:57;;;;;;;;;;;31.60;39.20;;;24.60;47.34;96420.25;5013405;28;19916;-41
2023/09/30 10:28:49;;;;;;;;;;;31.40;39.30;;;23.59;48.71;96395.78;5006484;28;19909;-42
2023/09/30 10:31:21;;;;;;;;;;;31.10;39.40;;;23.54;50.39;96387.84;5010404;28;19926;-42
2023/09/30 10:34:01;;;;;;;;;;;30.90;39.30;;;23.85;49.45;96381.25;5012945;28;19916;-41
2023/09/30 10:36:39;;;;;;;;;;;31.10;39.30;;;23.98;50.13;96381.03;5012081;28;19909;-43
2023/09/30 10:39:17;;;;;;;;;;;31.30;39.30;;;24.49;48.41;96372.78;4987714;28;20264;-42
2023/09/30 10:41:50;;;;;;;;;;;31.50;39.20;;;24.40;48.20;96370.09;5012019;28;20252;-44
2023/09/30 10:44:29;;;;;;;;;;;31.80;39.20;;;24.64;48.42;96368.63;5012291;28;19920;-42
2023/09/30 10:47:00;;;;;;;;;;;32.00;39.00;;;24.83;47.51;96374.34;5011365;28;20267;-47
2023/09/30 10:49:25;;;;;;;;;;;32.20;38.80;;;25.38;46.48;96372.28;5012995;28;19916;-47
2023/09/30 10:51:57;;;;;;;;;;;32.50;38.70;;;25.95;45.68;96368.63;5012809;28;19909;-44
2023/09/30 10:54:29;;;;;;;;;;;32.80;38.80;;;25.71;45.45;96358.50;4989058;28;19948;-42
2023/09/30 10:56:55;;;;;;;;;;;33.20;38.50;;;25.62;45.88;96353.19;5004722;28;20004;-48
2023/09/30 10:59:26;;;;;;;;;;;33.40;38.20;;;25.32;46.03;96360.00;5011873;28;19909;-42
2023/09/30 11:01:53;;;;;;;;;;;33.50;37.80;;;25.67;45.08;96357.63;5012808;28;19960;-41
2023/09/30 11:04:20;;;;;;;;;;;33.60;37.60;;;25.95;44.33;96359.63;5012422;28;20371;-42
2023/09/30 11:06:47;;;;;;;;;;;33.90;37.60;;;25.58;45.65;96357.75;5011098;28;19913;-44
2023/09/30 11:09:21;;;;;;;;;;;34.10;37.40;;;26.15;44.84;96364.13;4987113;28;20296;-48
2023/09/30 11:11:53;;;;;;;;;;;34.30;37.20;;;26.26;44.79;96361.69;5011332;28;20283;-44
2023/09/30 11:14:31;;;;;;;;;;;34.60;37.00;;;26.39;43.39;96348.81;5012389;28;19932;-45
2023/09/30 11:17:01;;;;;;;;;;;34.50;37.00;;;25.97;44.95;96357.34;5010901;28;20730;-44
2023/09/30 11:19:47;;;;;;;;;;;34.30;36.80;;;26.05;44.03;96353.69;5010999;28;20008;-44